createdAt,value
2022-12-19T00:00:33.149Z,-0.28
2022-12-19T00:01:33.167Z,-0.18
2022-12-19T00:02:33.186Z,-0.19
2022-12-19T00:03:33.153Z,-0.18
2022-12-19T00:04:33.190Z,-0.18
2022-12-19T00:05:33.047Z,-0.21
2022-12-19T00:06:33.055Z,-0.19
2022-12-19T00:07:33.017Z,-0.22
2022-12-19T00:08:33.059Z,-0.19
2022-12-19T00:09:33.014Z,-0.16
2022-12-19T00:10:32.988Z,-0.21
2022-12-19T00:11:32.980Z,-0.21
2022-12-19T00:12:32.964Z,-0.07
2022-12-19T00:13:36.231Z,-0.18
2022-12-19T00:14:33.951Z,-0.15
2022-12-19T00:15:32.936Z,-0.22
2022-12-19T00:16:33.009Z,-0.10
2022-12-19T00:17:32.932Z,-0.16
2022-12-19T00:18:32.900Z,-0.16
2022-12-19T00:19:32.907Z,-0.15
2022-12-19T00:20:32.988Z,-0.26
2022-12-19T00:21:34.676Z,-0.22
2022-12-19T00:22:32.856Z,-0.19
2022-12-19T00:23:32.858Z,-0.19
2022-12-19T00:24:32.859Z,-0.22
2022-12-19T00:25:32.818Z,-0.22
2022-12-19T00:26:32.816Z,-0.22
2022-12-19T00:27:32.798Z,-0.21
2022-12-19T00:28:32.793Z,-0.21
2022-12-19T00:29:32.801Z,-0.25
2022-12-19T00:30:32.795Z,-0.23
2022-12-19T00:31:32.793Z,-0.18
2022-12-19T00:32:32.755Z,-0.25
2022-12-19T00:33:32.733Z,-0.19
2022-12-19T00:34:32.745Z,-0.29
2022-12-19T00:35:32.740Z,-0.25
2022-12-19T00:36:32.835Z,-0.16
2022-12-19T00:37:32.696Z,-0.25
2022-12-19T00:38:32.712Z,-0.15
2022-12-19T00:39:32.685Z,-0.21
2022-12-19T00:40:32.670Z,-0.14
2022-12-19T00:41:32.695Z,-0.21
2022-12-19T00:42:32.648Z,-0.22
2022-12-19T00:43:32.627Z,-0.23
2022-12-19T00:44:32.615Z,-0.19
2022-12-19T00:45:32.717Z,-0.18
2022-12-19T00:46:32.610Z,-0.21
2022-12-19T00:47:32.614Z,-0.18
2022-12-19T00:48:32.572Z,-0.16
2022-12-19T00:49:32.561Z,-0.18
2022-12-19T00:50:32.575Z,-0.22
2022-12-19T00:51:32.572Z,-0.19
2022-12-19T00:52:32.635Z,-0.22
2022-12-19T00:53:32.516Z,-0.21
2022-12-19T00:54:32.549Z,-0.19
2022-12-19T00:55:32.501Z,-0.16
2022-12-19T00:56:33.489Z,-0.08
2022-12-19T00:57:33.542Z,-0.10
2022-12-19T00:58:35.494Z,-0.05
2022-12-19T00:59:32.482Z,-0.11
2022-12-19T01:00:32.527Z,-0.08
2022-12-19T01:01:32.580Z,-0.04
2022-12-19T01:02:32.589Z,-0.07
2022-12-19T01:03:32.417Z,-0.04
2022-12-19T01:04:35.643Z,-0.08
2022-12-19T01:05:33.395Z,-0.08
2022-12-19T01:06:32.388Z,-0.04
2022-12-19T01:07:32.375Z,-0.04
2022-12-19T01:08:32.473Z,-0.05
2022-12-19T01:09:32.374Z,-0.05
2022-12-19T01:10:32.327Z,-0.03
2022-12-19T01:11:32.319Z,0.02
2022-12-19T01:12:32.313Z,0.00
2022-12-19T01:13:32.316Z,0.00
2022-12-19T01:14:32.320Z,-0.05
2022-12-19T01:15:32.299Z,-0.07
2022-12-19T01:16:32.314Z,-0.10
2022-12-19T01:17:32.278Z,-0.07
2022-12-19T01:18:32.247Z,-0.08
2022-12-19T01:19:32.226Z,-0.11
2022-12-19T01:20:32.233Z,-0.08
2022-12-19T01:21:32.223Z,-0.11
2022-12-19T01:22:32.228Z,-0.16
2022-12-19T01:23:32.189Z,-0.11
2022-12-19T01:24:32.317Z,-0.10
2022-12-19T01:25:32.168Z,-0.15
2022-12-19T01:26:32.157Z,-0.11
2022-12-19T01:27:32.226Z,-0.11
2022-12-19T01:28:32.139Z,-0.11
2022-12-19T01:30:44.406Z,-0.05
2022-12-19T01:31:44.438Z,-0.10
2022-12-19T01:32:44.365Z,-0.10
2022-12-19T01:33:44.330Z,-0.15
2022-12-19T01:34:44.343Z,-0.11
2022-12-19T01:35:44.315Z,-0.18
2022-12-19T01:36:44.305Z,-0.16
2022-12-19T01:37:44.291Z,-0.16
2022-12-19T01:38:44.279Z,-0.14
2022-12-19T01:39:44.406Z,-0.15
2022-12-19T01:40:44.261Z,-0.15
2022-12-19T01:41:44.253Z,-0.05
2022-12-19T01:42:44.244Z,-0.10
2022-12-19T01:43:44.223Z,-0.03
2022-12-19T01:44:44.232Z,-0.14
2022-12-19T01:45:46.149Z,-0.08
2022-12-19T01:46:44.238Z,-0.11
2022-12-19T01:47:44.184Z,-0.15
2022-12-19T01:48:44.166Z,-0.19
2022-12-19T01:49:44.163Z,-0.16
2022-12-19T01:50:58.825Z,-0.15
2022-12-19T01:51:45.136Z,-0.18
2022-12-19T01:52:44.125Z,-0.18
2022-12-19T01:53:48.258Z,-0.18
2022-12-19T01:54:45.120Z,-0.21
2022-12-19T01:55:44.213Z,-0.08
2022-12-19T01:57:56.364Z,-0.11
2022-12-19T01:59:05.704Z,-0.21
2022-12-19T01:59:57.301Z,-0.14
2022-12-19T02:00:56.296Z,-0.07
2022-12-19T02:01:56.357Z,-0.05
2022-12-19T02:02:56.391Z,-0.07
2022-12-19T02:03:56.246Z,-0.05
2022-12-19T02:04:56.281Z,-0.04
2022-12-19T02:05:56.223Z,-0.08
2022-12-19T02:06:56.223Z,-0.05
2022-12-19T02:07:56.206Z,-0.03
2022-12-19T02:08:56.175Z,-0.11
2022-12-19T02:09:56.952Z,-0.03
2022-12-19T02:10:56.273Z,-0.05
2022-12-19T02:13:07.436Z,-0.07
2022-12-19T02:14:07.384Z,-0.07
2022-12-19T02:15:07.394Z,-0.07
2022-12-19T02:16:07.349Z,-0.07
2022-12-19T02:17:07.343Z,-0.08
2022-12-19T02:18:07.365Z,-0.07
2022-12-19T02:19:07.542Z,-0.10
2022-12-19T02:20:07.323Z,-0.08
2022-12-19T02:21:07.291Z,-0.15
2022-12-19T02:22:07.314Z,-0.07
2022-12-19T02:23:07.278Z,-0.08
2022-12-19T02:24:07.272Z,-0.14
2022-12-19T02:25:07.285Z,-0.05
2022-12-19T02:26:07.365Z,-0.04
2022-12-19T02:27:07.234Z,-0.04
2022-12-19T02:28:07.254Z,-0.05
2022-12-19T02:29:07.213Z,-0.07
2022-12-19T02:30:07.283Z,-0.08
2022-12-19T02:31:11.414Z,-0.10
2022-12-19T02:32:08.182Z,-0.05
2022-12-19T02:33:07.170Z,-0.07
2022-12-19T02:34:07.163Z,-0.07
2022-12-19T02:35:07.150Z,-0.10
2022-12-19T02:36:07.163Z,0.00
2022-12-19T02:37:07.134Z,-0.07
2022-12-19T02:38:08.420Z,-0.03
2022-12-19T02:39:07.147Z,-0.05
2022-12-19T02:40:07.098Z,-0.10
2022-12-19T02:41:07.091Z,-0.05
2022-12-19T02:42:07.193Z,-0.07
2022-12-19T02:43:07.085Z,-0.05
2022-12-19T02:44:07.066Z,-0.07
2022-12-19T02:45:07.116Z,-0.10
2022-12-19T02:46:07.116Z,-0.03
2022-12-19T02:47:07.030Z,0.02
2022-12-19T02:48:08.994Z,-0.03
2022-12-19T02:49:07.012Z,-0.01
2022-12-19T02:50:06.996Z,0.00
2022-12-19T02:51:07.004Z,0.00
2022-12-19T02:52:06.982Z,0.04
2022-12-19T02:53:06.974Z,0.03
2022-12-19T02:54:07.063Z,0.04
2022-12-19T02:55:07.062Z,0.04
2022-12-19T02:56:07.048Z,0.08
2022-12-19T02:57:06.965Z,0.00
2022-12-19T02:58:07.028Z,0.04
2022-12-19T02:59:06.896Z,0.10
2022-12-19T03:00:06.894Z,0.04
2022-12-19T03:01:06.948Z,0.07
2022-12-19T03:02:07.134Z,0.00
2022-12-19T03:04:18.232Z,0.04
2022-12-19T03:05:18.206Z,0.08
2022-12-19T03:06:18.254Z,0.07
2022-12-19T03:07:18.197Z,0.08
2022-12-19T03:08:18.175Z,0.10
2022-12-19T03:09:18.172Z,0.10
2022-12-19T03:10:18.150Z,0.10
2022-12-19T03:11:18.164Z,0.08
2022-12-19T03:12:18.164Z,0.07
2022-12-19T03:13:18.233Z,0.03
2022-12-19T03:14:18.113Z,0.00
2022-12-19T03:15:18.121Z,0.02
2022-12-19T03:16:18.187Z,0.03
2022-12-19T03:17:18.088Z,-0.03
2022-12-19T03:18:18.085Z,0.07
2022-12-19T03:19:18.092Z,0.00
2022-12-19T03:20:18.060Z,0.00
2022-12-19T03:21:18.058Z,0.02
2022-12-19T03:22:18.037Z,0.02
2022-12-19T03:23:18.113Z,-0.05
2022-12-19T03:24:18.027Z,0.04
2022-12-19T03:25:18.003Z,0.08
2022-12-19T03:26:18.076Z,0.11
2022-12-19T03:27:17.975Z,0.08
2022-12-19T03:28:17.978Z,0.14
2022-12-19T03:29:18.298Z,0.04
2022-12-19T03:30:17.956Z,0.04
2022-12-19T03:31:18.036Z,0.08
2022-12-19T03:32:17.950Z,0.02
2022-12-19T03:33:17.922Z,0.08
2022-12-19T03:34:17.899Z,0.07
2022-12-19T03:35:17.998Z,0.10
2022-12-19T03:36:17.902Z,0.07
2022-12-19T03:37:17.907Z,0.04
2022-12-19T03:38:17.879Z,0.08
2022-12-19T03:39:17.867Z,0.10
2022-12-19T03:40:17.848Z,0.04
2022-12-19T03:41:17.856Z,0.10
2022-12-19T03:42:17.840Z,0.07
2022-12-19T03:43:17.865Z,0.07
2022-12-19T03:44:17.825Z,0.15
2022-12-19T03:45:17.801Z,0.15
2022-12-19T03:46:17.880Z,0.15
2022-12-19T03:47:17.787Z,0.14
2022-12-19T03:49:30.003Z,0.23
2022-12-19T03:50:29.990Z,0.24
2022-12-19T03:51:29.960Z,0.24
2022-12-19T03:52:29.949Z,0.28
2022-12-19T03:53:29.939Z,0.32
2022-12-19T03:54:29.933Z,0.23
2022-12-19T03:55:30.063Z,0.26
2022-12-19T03:56:29.908Z,0.26
2022-12-19T03:57:29.919Z,0.29
2022-12-19T03:58:29.905Z,0.26
2022-12-19T03:59:29.873Z,0.31
2022-12-19T04:00:29.997Z,0.31
2022-12-19T04:01:29.971Z,0.41
2022-12-19T04:02:29.878Z,0.33
2022-12-19T04:03:29.908Z,0.41
2022-12-19T04:04:29.864Z,0.38
2022-12-19T04:05:29.840Z,0.33
2022-12-19T04:06:29.818Z,0.29
2022-12-19T04:07:29.790Z,0.32
2022-12-19T04:08:29.783Z,0.46
2022-12-19T04:09:29.770Z,0.46
2022-12-19T04:10:29.776Z,0.41
2022-12-19T04:11:29.782Z,0.41
2022-12-19T04:12:29.744Z,0.35
2022-12-19T04:13:29.726Z,0.33
2022-12-19T04:14:29.722Z,0.35
2022-12-19T04:15:29.894Z,0.36
2022-12-19T04:16:29.779Z,0.35
2022-12-19T04:17:29.685Z,0.33
2022-12-19T04:18:29.689Z,0.33
2022-12-19T04:19:29.660Z,0.32
2022-12-19T04:20:29.654Z,0.36
2022-12-19T04:21:29.668Z,0.42
2022-12-19T04:22:29.628Z,0.47
2022-12-19T04:23:29.622Z,0.46
2022-12-19T04:24:29.605Z,0.51
2022-12-19T04:25:29.881Z,0.55
2022-12-19T04:26:29.613Z,0.53
2022-12-19T04:27:29.588Z,0.49
2022-12-19T04:28:29.605Z,0.51
2022-12-19T04:29:29.556Z,0.58
2022-12-19T04:30:29.544Z,0.44
2022-12-19T04:31:29.571Z,0.62
2022-12-19T04:32:29.641Z,0.55
2022-12-19T04:33:29.516Z,0.53
2022-12-19T04:34:29.497Z,0.53
2022-12-19T04:35:29.506Z,0.62
2022-12-19T04:36:29.508Z,0.53
2022-12-19T04:37:29.479Z,0.55
2022-12-19T04:38:29.504Z,0.61
2022-12-19T04:39:29.493Z,0.60
2022-12-19T04:40:29.430Z,0.49
2022-12-19T04:41:29.440Z,0.49
2022-12-19T04:42:29.413Z,0.53
2022-12-19T04:43:29.415Z,0.58
2022-12-19T04:44:29.385Z,0.60
2022-12-19T04:45:29.369Z,0.58
2022-12-19T04:46:29.467Z,0.53
2022-12-19T04:47:30.239Z,0.55
2022-12-19T04:48:29.501Z,0.61
2022-12-19T04:49:29.354Z,0.53
2022-12-19T04:50:29.317Z,0.55
2022-12-19T04:51:29.318Z,0.57
2022-12-19T04:52:29.304Z,0.58
2022-12-19T04:53:29.318Z,0.50
2022-12-19T04:54:29.283Z,0.58
2022-12-19T04:55:29.263Z,0.55
2022-12-19T04:56:29.266Z,0.44
2022-12-19T04:57:29.249Z,0.55
2022-12-19T04:58:29.261Z,0.50
2022-12-19T04:59:29.233Z,0.53
2022-12-19T05:00:29.236Z,0.49
2022-12-19T05:01:29.317Z,0.44
2022-12-19T05:02:29.383Z,0.47
2022-12-19T05:03:29.386Z,0.53
2022-12-19T05:04:29.286Z,0.50
2022-12-19T05:05:29.179Z,0.53
2022-12-19T05:06:29.170Z,0.50
2022-12-19T05:07:29.135Z,0.50
2022-12-19T05:08:29.124Z,0.53
2022-12-19T05:09:29.121Z,0.53
2022-12-19T05:10:29.124Z,0.51
2022-12-19T05:11:29.098Z,0.66
2022-12-19T05:12:29.079Z,0.62
2022-12-19T05:13:29.070Z,0.62
2022-12-19T05:14:29.057Z,0.69
2022-12-19T05:15:29.076Z,0.65
2022-12-19T05:16:29.099Z,0.62
2022-12-19T05:17:29.030Z,0.60
2022-12-19T05:18:29.014Z,0.62
2022-12-19T05:19:28.992Z,0.58
2022-12-19T05:20:29.195Z,0.65
2022-12-19T05:21:28.977Z,0.61
2022-12-19T05:22:28.977Z,0.70
2022-12-19T05:23:28.979Z,0.62
2022-12-19T05:24:28.968Z,0.57
2022-12-19T05:25:28.937Z,0.49
2022-12-19T05:26:28.925Z,0.51
2022-12-19T05:27:28.917Z,0.61
2022-12-19T05:28:28.904Z,0.65
2022-12-19T05:29:28.909Z,0.72
2022-12-19T05:30:28.893Z,0.69
2022-12-19T05:31:28.891Z,0.75
2022-12-19T05:32:28.868Z,0.70
2022-12-19T05:33:28.851Z,0.70
2022-12-19T05:34:28.855Z,0.62
2022-12-19T05:35:28.855Z,0.62
2022-12-19T05:36:32.475Z,0.70
2022-12-19T05:37:28.804Z,0.65
2022-12-19T05:38:28.810Z,0.66
2022-12-19T05:39:28.779Z,0.72
2022-12-19T05:40:28.795Z,0.62
2022-12-19T05:41:28.784Z,0.62
2022-12-19T05:42:28.767Z,0.65
2022-12-19T05:43:28.735Z,0.62
2022-12-19T05:44:28.737Z,0.60
2022-12-19T05:45:28.719Z,0.69
2022-12-19T05:46:28.759Z,0.69
2022-12-19T05:47:28.702Z,0.66
2022-12-19T05:48:28.710Z,0.65
2022-12-19T05:49:28.676Z,0.73
2022-12-19T05:50:28.663Z,0.76
2022-12-19T05:51:28.649Z,0.70
2022-12-19T05:52:28.769Z,0.76
2022-12-19T05:53:28.620Z,0.70
2022-12-19T05:54:28.614Z,0.73
2022-12-19T05:55:28.609Z,0.73
2022-12-19T05:56:28.618Z,0.73
2022-12-19T05:57:28.600Z,0.73
2022-12-19T05:58:28.599Z,0.80
2022-12-19T05:59:28.558Z,0.75
2022-12-19T06:00:28.551Z,0.75
2022-12-19T06:01:28.567Z,0.76
2022-12-19T06:02:28.705Z,0.80
2022-12-19T06:03:28.563Z,0.97
2022-12-19T06:04:28.506Z,0.83
2022-12-19T06:05:28.513Z,0.90
2022-12-19T06:06:28.521Z,0.87
2022-12-19T06:07:28.490Z,0.83
2022-12-19T06:08:28.615Z,0.97
2022-12-19T06:09:28.472Z,0.90
2022-12-19T06:10:28.443Z,0.94
2022-12-19T06:11:28.503Z,1.04
2022-12-19T06:12:28.425Z,1.05
2022-12-19T06:13:28.413Z,1.02
2022-12-19T06:14:28.420Z,1.04
2022-12-19T06:15:28.411Z,1.05
2022-12-19T06:16:28.442Z,1.00
2022-12-19T06:17:28.367Z,1.05
2022-12-19T06:18:28.368Z,1.00
2022-12-19T06:19:28.384Z,1.05
2022-12-19T06:20:28.330Z,1.05
2022-12-19T06:21:28.416Z,1.06
2022-12-19T06:22:28.310Z,1.09
2022-12-19T06:23:28.308Z,1.04
2022-12-19T06:24:28.587Z,1.04
2022-12-19T06:25:28.279Z,1.08
2022-12-19T06:26:28.269Z,1.00
2022-12-19T06:27:28.263Z,1.02
2022-12-19T06:28:28.284Z,1.00
2022-12-19T06:29:28.252Z,1.00
2022-12-19T06:30:28.235Z,1.02
2022-12-19T06:31:28.284Z,0.98
2022-12-19T06:32:28.204Z,0.98
2022-12-19T06:33:28.230Z,0.98
2022-12-19T06:35:02.195Z,0.98
2022-12-19T06:35:29.169Z,1.04
2022-12-19T06:36:28.183Z,1.08
2022-12-19T06:37:28.138Z,1.04
2022-12-19T06:38:28.147Z,1.04
2022-12-19T06:39:28.129Z,1.11
2022-12-19T06:40:28.262Z,1.12
2022-12-19T06:41:28.126Z,1.11
2022-12-19T06:42:28.092Z,1.05
2022-12-19T06:43:28.105Z,1.04
2022-12-19T06:44:28.094Z,1.06
2022-12-19T06:45:28.077Z,1.14
2022-12-19T06:46:28.040Z,1.18
2022-12-19T06:47:28.035Z,1.16
2022-12-19T06:48:28.024Z,1.22
2022-12-19T06:49:28.037Z,1.20
2022-12-19T06:50:28.022Z,1.23
2022-12-19T06:51:27.990Z,1.34
2022-12-19T06:52:27.978Z,1.32
2022-12-19T06:53:28.016Z,1.32
2022-12-19T06:54:27.983Z,1.41
2022-12-19T06:55:27.962Z,1.36
2022-12-19T06:56:28.061Z,1.40
2022-12-19T06:57:27.938Z,1.34
2022-12-19T06:58:27.931Z,1.30
2022-12-19T06:59:27.927Z,1.32
2022-12-19T07:00:27.924Z,1.29
2022-12-19T07:01:28.017Z,1.34
2022-12-19T07:02:28.017Z,1.42
2022-12-19T07:03:27.864Z,1.42
2022-12-19T07:04:27.868Z,1.52
2022-12-19T07:05:27.845Z,1.50
2022-12-19T07:06:27.824Z,1.44
2022-12-19T07:07:27.825Z,1.44
2022-12-19T07:08:27.847Z,1.58
2022-12-19T07:09:27.791Z,1.45
2022-12-19T07:10:27.848Z,1.55
2022-12-19T07:11:27.791Z,1.50
2022-12-19T07:12:27.892Z,1.59
2022-12-19T07:13:27.755Z,1.48
2022-12-19T07:14:27.734Z,1.60
2022-12-19T07:15:27.723Z,1.47
2022-12-19T07:16:27.759Z,1.48
2022-12-19T07:17:27.706Z,1.60
2022-12-19T07:18:27.710Z,1.58
2022-12-19T07:19:27.694Z,1.58
2022-12-19T07:20:27.672Z,1.59
2022-12-19T07:21:27.815Z,1.59
2022-12-19T07:22:27.648Z,1.59
2022-12-19T07:23:27.631Z,1.54
2022-12-19T07:24:27.634Z,1.52
2022-12-19T07:25:27.616Z,1.54
2022-12-19T07:26:27.618Z,1.50
2022-12-19T07:27:35.239Z,1.50
2022-12-19T07:28:28.726Z,1.55
2022-12-19T07:29:27.587Z,1.52
2022-12-19T07:30:27.629Z,1.60
2022-12-19T07:31:27.607Z,1.42
2022-12-19T07:32:27.541Z,1.50
2022-12-19T07:33:27.564Z,1.52
2022-12-19T07:34:27.516Z,1.55
2022-12-19T07:35:27.529Z,1.50
2022-12-19T07:36:27.503Z,1.59
2022-12-19T07:37:27.482Z,1.50
2022-12-19T07:38:27.468Z,1.60
2022-12-19T07:39:27.483Z,1.60
2022-12-19T07:40:27.448Z,1.63
2022-12-19T07:41:27.435Z,1.58
2022-12-19T07:42:32.331Z,1.50
2022-12-19T07:43:28.568Z,1.50
2022-12-19T07:44:27.421Z,1.59
2022-12-19T07:45:27.466Z,1.59
2022-12-19T07:46:27.389Z,1.54
2022-12-19T07:47:27.384Z,1.52
2022-12-19T07:48:27.383Z,1.62
2022-12-19T07:49:27.442Z,1.65
2022-12-19T07:50:27.330Z,1.55
2022-12-19T07:51:27.338Z,1.58
2022-12-19T07:52:27.317Z,1.58
2022-12-19T07:53:27.323Z,1.58
2022-12-19T07:54:27.332Z,1.58
2022-12-19T07:55:27.293Z,1.58
2022-12-19T07:56:27.280Z,1.55
2022-12-19T07:57:27.259Z,1.62
2022-12-19T07:58:27.275Z,1.58
2022-12-19T07:59:31.274Z,1.52
2022-12-19T08:00:28.453Z,1.50
2022-12-19T08:01:28.509Z,1.52
2022-12-19T08:02:28.347Z,1.50
2022-12-19T08:03:27.193Z,1.44
2022-12-19T08:04:27.213Z,1.52
2022-12-19T08:05:27.175Z,1.50
2022-12-19T08:06:27.159Z,1.54
2022-12-19T08:07:27.151Z,1.58
2022-12-19T08:08:27.158Z,1.55
2022-12-19T08:09:27.141Z,1.51
2022-12-19T08:10:27.122Z,1.59
2022-12-19T08:11:27.142Z,1.60
2022-12-19T08:12:27.103Z,1.50
2022-12-19T08:13:30.038Z,1.52
2022-12-19T08:14:28.099Z,1.50
2022-12-19T08:15:27.065Z,1.59
2022-12-19T08:16:27.231Z,1.59
2022-12-19T08:17:27.132Z,1.54
2022-12-19T08:18:27.028Z,1.55
2022-12-19T08:19:27.793Z,1.65
2022-12-19T08:20:27.147Z,1.55
2022-12-19T08:21:27.041Z,1.63
2022-12-19T08:22:27.021Z,1.60
2022-12-19T08:23:27.035Z,1.48
2022-12-19T08:24:26.967Z,1.52
2022-12-19T08:25:26.973Z,1.51
2022-12-19T08:26:28.311Z,1.51
2022-12-19T08:27:27.030Z,1.58
2022-12-19T08:28:26.924Z,1.52
2022-12-19T08:29:26.910Z,1.55
2022-12-19T08:30:26.922Z,1.60
2022-12-19T08:31:26.962Z,1.52
2022-12-19T08:32:26.987Z,1.52
2022-12-19T08:33:26.960Z,1.55
2022-12-19T08:34:26.877Z,1.60
2022-12-19T08:35:26.863Z,1.45
2022-12-19T08:36:26.828Z,1.55
2022-12-19T08:37:26.827Z,1.62
2022-12-19T08:38:26.830Z,1.58
2022-12-19T08:39:26.817Z,1.51
2022-12-19T08:40:26.802Z,1.51
2022-12-19T08:41:26.795Z,1.54
2022-12-19T08:42:26.774Z,1.54
2022-12-19T08:43:26.944Z,1.52
2022-12-19T08:44:26.738Z,1.58
2022-12-19T08:45:26.727Z,1.51
2022-12-19T08:46:26.813Z,1.65
2022-12-19T08:47:26.716Z,1.52
2022-12-19T08:48:26.818Z,1.52
2022-12-19T08:49:26.712Z,1.55
2022-12-19T08:50:26.680Z,1.58
2022-12-19T08:51:26.708Z,1.60
2022-12-19T08:52:26.655Z,1.62
2022-12-19T08:53:26.933Z,1.63
2022-12-19T08:54:26.629Z,1.66
2022-12-19T08:55:27.701Z,1.69
2022-12-19T08:56:26.638Z,1.60
2022-12-19T08:57:26.596Z,1.73
2022-12-19T08:58:26.607Z,1.68
2022-12-19T08:59:31.645Z,1.76
2022-12-19T09:00:27.572Z,1.76
2022-12-19T09:01:26.672Z,1.77
2022-12-19T09:02:26.696Z,1.80
2022-12-19T09:03:26.862Z,1.84
2022-12-19T09:05:57.575Z,1.84
2022-12-19T09:06:01.677Z,1.83
2022-12-19T09:06:27.588Z,1.91
2022-12-19T09:07:26.488Z,1.90
2022-12-19T09:08:26.476Z,2.03
2022-12-19T09:09:26.490Z,1.99
2022-12-19T09:10:26.455Z,1.95
2022-12-19T09:11:26.464Z,2.02
2022-12-19T09:12:26.432Z,2.00
2022-12-19T09:13:26.444Z,2.00
2022-12-19T09:14:26.409Z,2.06
2022-12-19T09:15:26.409Z,2.00
2022-12-19T09:16:26.447Z,1.99
2022-12-19T09:17:26.403Z,2.05
2022-12-19T09:18:26.409Z,2.06
2022-12-19T09:19:26.383Z,1.99
2022-12-19T09:20:26.500Z,2.05
2022-12-19T09:21:26.334Z,2.14
2022-12-19T09:22:29.379Z,2.06
2022-12-19T09:23:26.332Z,2.10
2022-12-19T09:24:26.365Z,2.12
2022-12-19T09:25:26.297Z,2.16
2022-12-19T09:26:26.283Z,2.09
2022-12-19T09:27:26.374Z,2.06
2022-12-19T09:28:27.899Z,2.16
2022-12-19T09:29:28.703Z,2.14
2022-12-19T09:30:27.303Z,2.17
2022-12-19T09:31:26.272Z,2.27
2022-12-19T09:32:26.242Z,2.23
2022-12-19T09:33:26.237Z,2.27
2022-12-19T09:34:27.394Z,2.31
2022-12-19T09:35:30.574Z,2.27
2022-12-19T09:36:26.312Z,2.25
2022-12-19T09:37:26.159Z,2.30
2022-12-19T09:38:26.170Z,2.42
2022-12-19T09:39:26.163Z,2.38
2022-12-19T09:40:26.151Z,2.42
2022-12-19T09:41:26.116Z,2.43
2022-12-19T09:42:26.113Z,2.43
2022-12-19T09:43:26.117Z,2.43
2022-12-19T09:44:26.084Z,2.31
2022-12-19T09:45:32.153Z,2.34
2022-12-19T09:46:27.126Z,2.30
2022-12-19T09:47:26.088Z,2.43
2022-12-19T09:48:26.061Z,2.39
2022-12-19T09:49:26.726Z,2.38
2022-12-19T09:50:26.020Z,2.39
2022-12-19T09:51:26.025Z,2.38
2022-12-19T09:52:26.916Z,2.45
2022-12-19T09:53:26.003Z,2.46
2022-12-19T09:54:25.976Z,2.49
2022-12-19T09:55:25.972Z,2.52
2022-12-19T09:56:25.947Z,2.52
2022-12-19T09:57:25.941Z,2.46
2022-12-19T09:58:25.948Z,2.53
2022-12-19T09:59:28.734Z,2.48
2022-12-19T10:00:26.902Z,2.56
2022-12-19T10:01:26.003Z,2.48
2022-12-19T10:02:27.176Z,2.53
2022-12-19T10:03:25.955Z,2.53
2022-12-19T10:04:25.861Z,2.56
2022-12-19T10:05:45.500Z,2.56
2022-12-19T10:07:20.455Z,2.61
2022-12-19T10:07:59.637Z,2.60
2022-12-19T10:08:26.991Z,2.57
2022-12-19T10:12:34.882Z,2.53
2022-12-19T10:12:36.560Z,2.60
2022-12-19T10:12:42.885Z,2.64
2022-12-19T10:12:45.999Z,2.67
2022-12-19T10:13:26.775Z,2.69
2022-12-19T10:14:25.764Z,2.72
2022-12-19T10:15:25.774Z,2.71
2022-12-19T10:16:25.780Z,2.71
2022-12-19T10:17:25.802Z,2.75
2022-12-19T10:18:25.717Z,2.75
2022-12-19T10:19:25.726Z,2.77
2022-12-19T10:20:25.725Z,2.78
2022-12-19T10:21:50.925Z,2.79
2022-12-19T10:22:26.694Z,2.77
2022-12-19T10:23:25.648Z,2.74
2022-12-19T10:24:28.756Z,2.85
2022-12-19T10:25:26.649Z,2.82
2022-12-19T10:26:29.975Z,2.84
2022-12-19T10:27:25.674Z,2.84
2022-12-19T10:28:25.600Z,2.92
2022-12-19T10:29:25.590Z,2.81
2022-12-19T10:30:25.586Z,2.85
2022-12-19T10:31:25.730Z,2.87
2022-12-19T10:32:25.565Z,2.90
2022-12-19T10:33:25.662Z,2.89
2022-12-19T10:34:25.555Z,2.89
2022-12-19T10:35:25.518Z,3.05
2022-12-19T10:36:48.580Z,3.06
2022-12-19T10:37:36.797Z,3.03
2022-12-19T10:38:26.493Z,2.97
2022-12-19T10:39:25.472Z,3.08
2022-12-19T10:40:27.898Z,3.10
2022-12-19T10:41:25.465Z,3.08
2022-12-19T10:42:25.502Z,3.11
2022-12-19T10:43:32.674Z,3.08
2022-12-19T10:44:25.422Z,3.17
2022-12-19T10:45:25.427Z,3.14
2022-12-19T10:46:25.450Z,3.11
2022-12-19T10:47:25.415Z,3.15
2022-12-19T10:48:30.856Z,3.13
2022-12-19T10:49:26.413Z,3.21
2022-12-19T10:50:25.371Z,3.26
2022-12-19T10:51:25.359Z,3.35
2022-12-19T10:52:25.332Z,3.29
2022-12-19T10:53:25.344Z,3.29
2022-12-19T10:54:33.245Z,3.31
2022-12-19T10:55:26.317Z,3.26
2022-12-19T10:56:30.353Z,3.40
2022-12-19T10:57:26.289Z,3.39
2022-12-19T10:58:25.380Z,3.52
2022-12-19T10:59:25.250Z,3.35
2022-12-19T11:00:25.243Z,3.35
2022-12-19T11:01:25.386Z,3.35
2022-12-19T11:02:25.329Z,3.32
2022-12-19T11:03:25.383Z,3.32
2022-12-19T11:04:25.288Z,3.33
2022-12-19T11:05:25.308Z,3.29
2022-12-19T11:06:25.207Z,3.35
2022-12-19T11:07:25.207Z,3.39
2022-12-19T11:08:25.224Z,3.36
2022-12-19T11:09:25.188Z,3.35
2022-12-19T11:11:46.731Z,3.36
2022-12-19T11:14:30.849Z,3.40
2022-12-19T11:16:40.687Z,3.40
2022-12-19T11:18:01.545Z,3.39
2022-12-19T11:19:22.313Z,3.40
2022-12-19T11:19:38.250Z,3.42
2022-12-19T11:21:09.696Z,3.39
2022-12-19T11:24:18.584Z,3.42
2022-12-19T11:29:15.084Z,3.35
2022-12-19T11:29:26.780Z,3.42
2022-12-19T11:29:30.580Z,3.40
2022-12-19T11:29:38.938Z,3.35
2022-12-19T11:29:39.999Z,3.40
2022-12-19T11:29:41.073Z,3.33
2022-12-19T11:29:46.486Z,3.39
2022-12-19T11:29:54.357Z,3.43
2022-12-19T11:30:47.446Z,3.43
2022-12-19T11:30:48.175Z,3.31
2022-12-19T11:30:48.855Z,3.31
2022-12-19T11:31:44.190Z,3.31
2022-12-19T11:32:44.555Z,3.39
2022-12-19T11:33:25.949Z,3.31
2022-12-19T11:34:24.900Z,3.36
2022-12-19T11:35:25.397Z,3.39
2022-12-19T11:36:25.840Z,3.51
2022-12-19T11:37:24.861Z,3.54
2022-12-19T11:38:24.829Z,3.48
2022-12-19T11:39:24.807Z,3.47
2022-12-19T11:40:24.812Z,3.54
2022-12-19T11:41:24.792Z,3.45
2022-12-19T11:42:24.798Z,3.50
2022-12-19T11:44:25.880Z,3.50
2022-12-19T11:45:24.768Z,3.50
2022-12-19T11:46:24.761Z,3.58
2022-12-19T11:47:24.724Z,3.55
2022-12-19T11:48:24.724Z,3.58
2022-12-19T11:49:24.728Z,3.60
2022-12-19T11:50:24.774Z,3.62
2022-12-19T11:51:24.695Z,3.65
2022-12-19T11:53:02.313Z,3.66
2022-12-19T11:53:25.657Z,3.75
2022-12-19T11:54:24.706Z,3.75
2022-12-19T11:55:24.652Z,3.73
2022-12-19T11:56:24.643Z,3.72
2022-12-19T11:57:24.616Z,3.79
2022-12-19T11:58:24.603Z,3.69
2022-12-19T11:59:24.596Z,3.73
2022-12-19T12:00:24.722Z,3.70
2022-12-19T12:01:24.646Z,3.72
2022-12-19T12:02:24.587Z,3.72
2022-12-19T12:03:24.603Z,3.69
2022-12-19T12:04:24.574Z,3.73
2022-12-19T12:05:24.546Z,3.69
2022-12-19T12:06:31.113Z,3.70
2022-12-19T12:08:10.173Z,3.72
2022-12-19T12:10:46.864Z,3.73
2022-12-19T12:12:57.281Z,3.72
2022-12-19T12:16:47.507Z,3.75
2022-12-19T12:18:49.218Z,3.66
2022-12-19T12:20:55.936Z,3.79
2022-12-19T12:22:11.064Z,3.75
2022-12-19T12:22:57.579Z,3.73
2022-12-19T12:25:18.687Z,3.76
2022-12-19T12:28:27.400Z,3.78
2022-12-19T12:31:02.598Z,3.78
2022-12-19T12:31:10.659Z,3.87
2022-12-19T12:31:13.626Z,3.84
2022-12-19T12:31:17.024Z,3.86
2022-12-19T12:31:18.863Z,3.80
2022-12-19T12:31:27.785Z,3.78
2022-12-19T12:31:32.066Z,3.94
2022-12-19T12:31:32.656Z,3.88
2022-12-19T12:31:39.013Z,3.96
2022-12-19T12:31:47.727Z,3.91
2022-12-19T12:31:56.042Z,3.98
2022-12-19T12:32:05.584Z,3.90
2022-12-19T12:35:09.653Z,3.94
2022-12-19T12:35:16.490Z,3.91
2022-12-19T12:35:28.677Z,3.96
2022-12-19T12:35:35.102Z,3.96
2022-12-19T12:35:46.388Z,3.86
2022-12-19T12:35:55.109Z,3.91
2022-12-19T12:37:55.787Z,3.94
2022-12-19T12:38:27.720Z,3.87
2022-12-19T12:39:29.742Z,4.04
2022-12-19T12:40:25.137Z,4.00
2022-12-19T12:41:24.127Z,3.87
2022-12-19T12:42:24.134Z,3.98
2022-12-19T12:43:24.137Z,4.02
2022-12-19T12:44:30.665Z,4.04
2022-12-19T12:45:25.091Z,4.04
2022-12-19T12:46:24.135Z,4.00
2022-12-19T12:47:24.061Z,3.97
2022-12-19T12:48:24.138Z,3.97
2022-12-19T12:49:24.067Z,3.91
2022-12-19T12:50:24.123Z,3.97
2022-12-19T12:51:24.087Z,3.96
2022-12-19T12:52:24.009Z,3.98
2022-12-19T12:53:23.996Z,4.04
2022-12-19T12:54:23.992Z,4.00
2022-12-19T12:55:23.977Z,3.97
2022-12-19T12:56:23.995Z,3.96
2022-12-19T12:57:23.961Z,3.97
2022-12-19T12:58:24.033Z,4.02
2022-12-19T12:59:23.988Z,4.00
2022-12-19T13:00:23.930Z,3.94
2022-12-19T13:01:24.003Z,3.94
2022-12-19T13:02:24.163Z,3.98
2022-12-19T13:03:23.954Z,3.97
2022-12-19T13:04:23.899Z,3.91
2022-12-19T13:05:23.866Z,3.94
2022-12-19T13:06:23.881Z,3.90
2022-12-19T13:07:23.841Z,3.93
2022-12-19T13:08:23.829Z,3.79
2022-12-19T13:09:23.830Z,3.87
2022-12-19T13:10:23.804Z,3.87
2022-12-19T13:11:23.852Z,3.90
2022-12-19T13:12:24.785Z,3.87
2022-12-19T13:13:25.987Z,3.88
2022-12-19T13:14:23.770Z,3.90
2022-12-19T13:15:23.761Z,3.94
2022-12-19T13:16:23.843Z,4.04
2022-12-19T13:17:23.755Z,3.93
2022-12-19T13:18:23.744Z,3.96
2022-12-19T13:19:27.945Z,3.93
2022-12-19T13:20:23.765Z,3.94
2022-12-19T13:21:23.709Z,4.02
2022-12-19T13:22:23.677Z,3.86
2022-12-19T13:23:23.682Z,3.96
2022-12-19T13:24:23.649Z,3.97